createdAt,value
2019-04-01T00:01:51.871Z,1.77
2019-04-01T00:04:21.391Z,1.80
2019-04-01T00:06:50.904Z,1.90
2019-04-01T00:09:20.418Z,1.90
2019-04-01T00:11:49.934Z,2.02
2019-04-01T00:14:19.468Z,1.80
2019-04-01T00:16:48.982Z,1.87
2019-04-01T00:19:18.533Z,2.20
2019-04-01T00:21:48.039Z,1.85
2019-04-01T00:24:17.554Z,2.25
2019-04-01T00:26:47.058Z,1.70
2019-04-01T00:29:16.604Z,2.12
2019-04-01T00:31:46.147Z,1.90
2019-04-01T00:34:15.713Z,2.20
2019-04-01T00:36:45.215Z,2.15
2019-04-01T00:39:14.727Z,1.77
2019-04-01T00:41:51.542Z,1.75
2019-04-01T00:44:21.080Z,2.35
2019-04-01T00:46:50.598Z,2.70
2019-04-01T00:49:20.128Z,2.17
2019-04-01T00:51:49.626Z,2.13
2019-04-01T00:54:19.129Z,1.60
2019-04-01T00:56:48.639Z,1.73
2019-04-01T00:59:18.184Z,1.63
2019-04-01T01:01:48.740Z,1.85
2019-04-01T01:04:18.258Z,2.00
2019-04-01T01:06:47.779Z,2.17
2019-04-01T01:09:17.307Z,1.70
2019-04-01T01:11:46.824Z,1.90
2019-04-01T01:14:16.358Z,2.12
2019-04-01T01:16:45.921Z,2.10
2019-04-01T01:19:16.406Z,2.10
2019-04-01T01:21:45.933Z,1.80
2019-04-01T01:24:15.440Z,1.80
2019-04-01T01:26:44.962Z,1.82
2019-04-01T01:29:14.473Z,2.60
2019-04-01T01:31:43.994Z,2.20
2019-04-01T01:34:13.502Z,2.00
2019-04-01T01:36:43.033Z,1.95
2019-04-01T01:39:13.518Z,2.20
2019-04-01T01:41:43.030Z,2.00
2019-04-01T01:44:12.616Z,1.83
2019-04-01T01:46:42.151Z,1.92
2019-04-01T01:49:11.676Z,2.10
2019-04-01T01:51:41.201Z,2.30
2019-04-01T01:54:12.510Z,2.40
2019-04-01T01:56:42.043Z,2.00
2019-04-01T01:59:11.654Z,2.50
2019-04-01T02:01:41.196Z,2.40
2019-04-01T02:04:10.713Z,2.40
2019-04-01T02:06:40.245Z,2.25
2019-04-01T02:09:10.747Z,1.90
2019-04-01T02:11:40.251Z,2.20
2019-04-01T02:14:09.762Z,2.17
2019-04-01T02:16:40.253Z,1.95
2019-04-01T02:19:09.767Z,2.08
2019-04-01T02:21:39.274Z,2.22
2019-04-01T02:24:08.779Z,2.10
2019-04-01T02:26:38.308Z,2.55
2019-04-01T02:29:07.830Z,2.08
2019-04-01T02:31:37.363Z,2.50
2019-04-01T02:34:06.909Z,2.07
2019-04-01T02:36:36.397Z,2.40
2019-04-01T02:39:08.532Z,2.00
2019-04-01T02:41:38.049Z,2.10
2019-04-01T02:44:07.566Z,2.22
2019-04-01T02:46:37.091Z,2.00
2019-04-01T02:49:06.625Z,2.00
2019-04-01T02:51:36.166Z,2.60
2019-04-01T02:54:05.758Z,2.43
2019-04-01T02:56:35.292Z,2.77
2019-04-01T02:59:04.826Z,2.27
2019-04-01T03:01:34.376Z,3.40
2019-04-01T03:04:04.083Z,2.90
2019-04-01T03:06:33.597Z,2.70
2019-04-01T03:09:04.838Z,2.67
2019-04-01T03:11:34.357Z,2.80
2019-04-01T03:14:03.898Z,2.50
2019-04-01T03:16:33.418Z,2.50
2019-04-01T03:19:02.935Z,3.40
2019-04-01T03:21:32.525Z,2.60
2019-04-01T03:24:02.128Z,3.03
2019-04-01T03:26:31.766Z,2.30
2019-04-01T03:29:01.329Z,2.33
2019-04-01T03:31:30.870Z,2.58
2019-04-01T03:34:00.388Z,2.52
2019-04-01T03:36:29.896Z,3.40
2019-04-01T03:38:59.413Z,2.80
2019-04-01T03:41:28.964Z,2.90
2019-04-01T03:43:58.615Z,3.00
2019-04-01T03:46:28.146Z,2.50
2019-04-01T03:48:57.670Z,2.45
2019-04-01T03:51:27.208Z,3.12
2019-04-01T03:53:56.825Z,3.15
2019-04-01T03:56:26.438Z,3.57
2019-04-01T03:58:55.959Z,4.00
2019-04-01T04:01:30.086Z,3.22
2019-04-01T04:03:56.729Z,2.92
2019-04-01T04:06:26.318Z,3.20
2019-04-01T04:08:55.844Z,2.40
2019-04-01T04:11:25.348Z,3.45
2019-04-01T04:13:54.923Z,3.00
2019-04-01T04:16:24.462Z,2.73
2019-04-01T04:18:53.966Z,2.63
2019-04-01T04:21:24.227Z,2.37
2019-04-01T04:23:54.032Z,2.83
2019-04-01T04:26:23.562Z,3.40
2019-04-01T04:28:53.088Z,3.20
2019-04-01T04:31:22.597Z,3.20
2019-04-01T04:33:52.137Z,3.05
2019-04-01T04:36:21.669Z,2.40
2019-04-01T04:38:51.179Z,3.10
2019-04-01T04:41:20.683Z,2.50
2019-04-01T04:43:50.281Z,3.15
2019-04-01T04:46:21.183Z,2.97
2019-04-01T04:48:52.096Z,3.20
2019-04-01T04:51:21.597Z,3.10
2019-04-01T04:53:51.151Z,2.50
2019-04-01T04:56:20.710Z,3.00
2019-04-01T04:58:50.256Z,3.23
2019-04-01T05:01:19.764Z,3.40
2019-04-01T05:03:49.279Z,2.50
2019-04-01T05:06:18.784Z,2.98
2019-04-01T05:08:48.301Z,3.10
2019-04-01T05:11:17.827Z,3.47
2019-04-01T05:13:48.331Z,3.20
2019-04-01T05:16:17.850Z,2.80
2019-04-01T05:18:47.358Z,2.80
2019-04-01T05:21:17.929Z,3.00
2019-04-01T05:23:48.136Z,2.83
2019-04-01T05:26:18.215Z,2.83
2019-04-01T05:28:47.746Z,3.10
2019-04-01T05:31:19.949Z,2.65
2019-04-01T05:33:55.743Z,2.80
2019-04-01T05:36:23.053Z,2.72
2019-04-01T05:38:52.647Z,2.92
2019-04-01T05:41:22.281Z,2.90
2019-04-01T05:43:51.920Z,3.30
2019-04-01T05:46:21.647Z,3.23
2019-04-01T05:48:51.236Z,2.60
2019-04-01T05:51:20.869Z,3.20
2019-04-01T05:53:50.404Z,3.25
2019-04-01T05:56:19.914Z,3.30
2019-04-01T05:58:49.443Z,3.08
2019-04-01T06:01:23.022Z,3.27
2019-04-01T06:03:52.543Z,4.03
2019-04-01T06:06:22.059Z,3.90
2019-04-01T06:08:51.593Z,3.87
2019-04-01T06:11:21.183Z,3.33
2019-04-01T06:13:50.790Z,3.52
2019-04-01T06:16:20.573Z,3.12
2019-04-01T06:18:50.085Z,3.00
2019-04-01T06:21:19.659Z,3.10
2019-04-01T06:23:50.173Z,3.40
2019-04-01T06:26:19.728Z,3.00
2019-04-01T06:28:49.278Z,3.20
2019-04-01T06:31:18.801Z,3.30
2019-04-01T06:33:49.375Z,3.27
2019-04-01T06:36:18.919Z,3.20
2019-04-01T06:38:48.807Z,2.93
2019-04-01T06:41:18.420Z,3.10
2019-04-01T06:43:47.946Z,3.07
2019-04-01T06:46:17.527Z,3.20
2019-04-01T06:48:47.144Z,3.65
2019-04-01T06:51:16.852Z,3.20
2019-04-01T06:53:46.377Z,2.85
2019-04-01T06:56:15.895Z,2.60
2019-04-01T06:58:45.478Z,3.50
2019-04-01T07:01:15.042Z,2.80
2019-04-01T07:03:44.537Z,2.80
2019-04-01T07:06:15.093Z,3.10
2019-04-01T07:08:44.626Z,3.08
2019-04-01T07:11:14.130Z,2.70
2019-04-01T07:13:44.245Z,2.93
2019-04-01T07:16:15.776Z,3.17
2019-04-01T07:18:45.044Z,3.00
2019-04-01T07:21:14.599Z,3.72
2019-04-01T07:23:44.182Z,2.67
2019-04-01T07:26:13.869Z,3.10
2019-04-01T07:28:45.470Z,2.50
2019-04-01T07:31:14.985Z,2.87
2019-04-01T07:33:45.483Z,2.47
2019-04-01T07:36:15.076Z,2.83
2019-04-01T07:38:44.669Z,2.85
2019-04-01T07:41:14.269Z,2.95
2019-04-01T07:43:43.784Z,2.90
2019-04-01T07:46:13.381Z,3.37
2019-04-01T07:48:43.019Z,3.15
2019-04-01T07:51:12.590Z,3.20
2019-04-01T07:53:42.208Z,3.02
2019-04-01T07:56:11.733Z,3.00
2019-04-01T07:58:42.099Z,2.90
2019-04-01T08:01:11.980Z,3.47
2019-04-01T08:03:42.034Z,2.80
2019-04-01T08:06:11.971Z,2.80
2019-04-01T08:08:41.493Z,2.60
2019-04-01T08:11:11.096Z,2.70
2019-04-01T08:13:40.616Z,2.72
2019-04-01T08:16:10.140Z,2.60
2019-04-01T08:18:39.760Z,3.17
2019-04-01T08:21:09.379Z,2.80
2019-04-01T08:23:39.985Z,2.67
2019-04-01T08:26:09.579Z,3.17
2019-04-01T08:28:39.097Z,3.53
2019-04-01T08:31:08.694Z,3.10
2019-04-01T08:33:38.243Z,3.10
2019-04-01T08:36:07.768Z,3.10
2019-04-01T08:38:37.440Z,3.12
2019-04-01T08:41:08.016Z,3.07
2019-04-01T08:43:37.532Z,3.30
2019-04-01T08:46:07.140Z,2.80
2019-04-01T08:48:36.794Z,2.90
2019-04-01T08:51:06.362Z,3.70
2019-04-01T08:53:36.942Z,2.67
2019-04-01T08:56:06.578Z,3.63
2019-04-01T08:58:36.522Z,3.90
2019-04-01T09:01:06.172Z,3.00
2019-04-01T09:03:35.712Z,3.17
2019-04-01T09:06:05.465Z,3.10
2019-04-01T09:08:35.112Z,3.17
2019-04-01T09:11:04.716Z,3.70
2019-04-01T09:13:34.316Z,3.72
2019-04-01T09:16:04.349Z,3.07
2019-04-01T09:18:33.868Z,3.08
2019-04-01T09:21:03.491Z,2.92
2019-04-01T09:23:34.145Z,2.90
2019-04-01T09:26:03.679Z,2.50
2019-04-01T09:28:33.296Z,3.20
2019-04-01T09:31:02.911Z,3.33
2019-04-01T09:33:32.423Z,3.00
2019-04-01T09:36:01.996Z,3.02
2019-04-01T09:38:31.570Z,3.05
2019-04-01T09:41:01.173Z,3.40
2019-04-01T09:43:30.738Z,3.70
2019-04-01T09:46:00.338Z,3.80
2019-04-01T09:48:30.026Z,3.50
2019-04-01T09:50:59.557Z,3.30
2019-04-01T09:53:29.090Z,3.27
2019-04-01T09:55:58.641Z,3.20
2019-04-01T09:58:28.791Z,2.67
2019-04-01T10:00:58.342Z,3.30
2019-04-01T10:03:27.875Z,3.02
2019-04-01T10:05:57.425Z,2.72
2019-04-01T10:08:41.587Z,2.77
2019-04-01T10:10:59.189Z,3.20
2019-04-01T10:13:28.774Z,3.35
2019-04-01T10:15:58.301Z,2.80
2019-04-01T10:18:27.837Z,2.80
2019-04-01T10:20:57.388Z,3.10
2019-04-01T10:23:27.903Z,2.33
2019-04-01T10:25:57.429Z,2.80
2019-04-01T10:28:26.948Z,2.90
2019-04-01T10:30:56.596Z,2.33
2019-04-01T10:33:26.126Z,2.83
2019-04-01T10:35:55.663Z,2.50
2019-04-01T10:38:25.275Z,2.60
2019-04-01T10:40:54.830Z,2.70
2019-04-01T10:43:24.338Z,2.50
2019-04-01T10:45:53.910Z,3.10
2019-04-01T10:48:23.524Z,2.60
2019-04-01T10:50:53.110Z,2.70
2019-04-01T10:53:22.870Z,2.83
2019-04-01T10:55:52.568Z,2.30
2019-04-01T10:58:22.176Z,2.20
2019-04-01T11:00:51.871Z,2.50
2019-04-01T11:03:21.449Z,2.70
2019-04-01T11:05:51.043Z,2.33
2019-04-01T11:08:20.542Z,2.12
2019-04-01T11:10:50.037Z,2.20
2019-04-01T11:13:19.577Z,2.72
2019-04-01T11:15:49.184Z,2.55
2019-04-01T11:18:18.803Z,2.27
2019-04-01T11:20:48.386Z,2.57
2019-04-01T11:23:18.015Z,2.20
2019-04-01T11:25:47.541Z,2.10
2019-04-01T11:28:17.134Z,2.35
2019-04-01T11:30:46.664Z,2.20
2019-04-01T11:33:16.223Z,2.00
2019-04-01T11:35:46.048Z,2.20
2019-04-01T11:38:15.764Z,2.00
2019-04-01T11:40:45.277Z,2.20
2019-04-01T11:43:14.804Z,2.20
2019-04-01T11:45:44.427Z,2.60
2019-04-01T11:48:14.004Z,2.77
2019-04-01T11:50:43.553Z,2.30
2019-04-01T11:53:13.126Z,2.30
2019-04-01T11:55:42.750Z,2.80
2019-04-01T11:58:12.367Z,3.47
2019-04-01T12:00:41.894Z,3.10
2019-04-01T12:03:11.422Z,2.40
2019-04-01T12:05:40.930Z,2.70
2019-04-01T12:08:10.483Z,2.62
2019-04-01T12:10:40.044Z,2.90
2019-04-01T12:13:09.556Z,2.30
2019-04-01T12:15:39.083Z,4.20
2019-04-01T12:18:09.832Z,3.10
2019-04-01T12:20:39.441Z,2.55
2019-04-01T12:23:10.253Z,2.77
2019-04-01T12:25:39.802Z,2.80
2019-04-01T12:28:09.422Z,3.00
2019-04-01T12:30:38.936Z,2.50
2019-04-01T12:33:09.263Z,2.20
2019-04-01T12:35:38.845Z,3.07
2019-04-01T12:38:08.366Z,1.93
2019-04-01T12:40:37.947Z,2.30
2019-04-01T12:43:07.510Z,3.08
2019-04-01T12:45:38.116Z,3.80
2019-04-01T12:48:07.729Z,2.33
2019-04-01T12:50:37.276Z,1.98
2019-04-01T12:53:07.168Z,2.70
2019-04-01T12:55:36.802Z,2.80
2019-04-01T12:58:06.366Z,2.80
2019-04-01T13:00:35.962Z,3.33
2019-04-01T13:03:05.532Z,2.90
2019-04-01T13:05:35.154Z,2.30
2019-04-01T13:08:04.796Z,2.30
2019-04-01T13:10:34.443Z,2.70
2019-04-01T13:13:04.026Z,2.70
2019-04-01T13:15:33.573Z,2.80
2019-04-01T13:18:03.108Z,2.50
2019-04-01T13:20:38.008Z,2.80
2019-04-01T13:23:03.870Z,2.90
2019-04-01T13:25:33.972Z,2.65
2019-04-01T13:28:03.699Z,2.50
2019-04-01T13:30:33.228Z,2.30
2019-04-01T13:33:02.778Z,2.60
2019-04-01T13:35:32.327Z,2.60
2019-04-01T13:38:01.848Z,2.80
2019-04-01T13:40:31.380Z,2.30
2019-04-01T13:43:04.403Z,2.50
2019-04-01T13:45:32.200Z,2.40
2019-04-01T13:48:01.824Z,2.33
2019-04-01T13:50:31.757Z,2.45
2019-04-01T13:53:02.163Z,2.40
2019-04-01T13:55:32.656Z,2.70
2019-04-01T13:58:02.190Z,2.30
2019-04-01T14:00:31.712Z,2.67
2019-04-01T14:03:01.239Z,2.90
2019-04-01T14:05:30.756Z,2.27
2019-04-01T14:08:00.270Z,2.30
2019-04-01T14:10:29.805Z,3.05
2019-04-01T14:12:59.406Z,2.47
2019-04-01T14:15:28.907Z,2.30
2019-04-01T14:17:58.426Z,2.40
2019-04-01T14:20:27.958Z,2.92
2019-04-01T14:22:57.479Z,2.70
2019-04-01T14:25:26.994Z,2.40
2019-04-01T14:27:56.501Z,2.50
2019-04-01T14:30:26.096Z,2.00
2019-04-01T14:32:55.660Z,1.98
2019-04-01T14:35:25.207Z,1.95
2019-04-01T14:37:58.023Z,3.20
2019-04-01T14:40:25.960Z,2.00
2019-04-01T14:42:55.502Z,2.33
2019-04-01T14:45:25.019Z,2.20
2019-04-01T14:47:57.604Z,2.30
2019-04-01T14:50:25.787Z,2.08
2019-04-01T14:52:55.291Z,2.30
2019-04-01T14:55:24.815Z,2.30
2019-04-01T14:57:54.983Z,2.50
2019-04-01T15:00:24.807Z,2.67
2019-04-01T15:02:54.318Z,2.60
2019-04-01T15:05:24.131Z,2.50
2019-04-01T15:07:53.645Z,3.00
2019-04-01T15:10:23.378Z,2.33
2019-04-01T15:13:04.459Z,2.20
2019-04-01T15:15:24.217Z,2.70
2019-04-01T15:17:53.727Z,2.20
2019-04-01T15:20:23.275Z,2.90
2019-04-01T15:22:53.385Z,2.42
2019-04-01T15:25:22.929Z,2.40
2019-04-01T15:27:52.477Z,2.33
2019-04-01T15:30:22.104Z,2.10
2019-04-01T15:32:52.160Z,2.77
2019-04-01T15:35:22.166Z,2.67
2019-04-01T15:37:52.156Z,2.50
2019-04-01T15:40:22.148Z,2.45
2019-04-01T15:42:51.713Z,2.20
2019-04-01T15:45:21.330Z,2.50
2019-04-01T15:47:50.859Z,2.45
2019-04-01T15:50:28.468Z,2.20
2019-04-01T15:52:52.753Z,2.00
2019-04-01T15:55:22.316Z,2.10
2019-04-01T15:57:51.830Z,1.90
2019-04-01T16:00:21.508Z,2.10
2019-04-01T16:02:51.151Z,2.20
2019-04-01T16:05:20.678Z,2.30
2019-04-01T16:07:50.286Z,2.50
2019-04-01T16:10:20.900Z,1.72
2019-04-01T16:12:50.637Z,2.10
2019-04-01T16:15:20.269Z,1.83
2019-04-01T16:17:49.953Z,2.60
2019-04-01T16:20:19.493Z,2.50
2019-04-01T16:22:49.305Z,2.22
2019-04-01T16:25:20.695Z,2.30
2019-04-01T16:27:50.254Z,2.00
2019-04-01T16:30:19.779Z,1.77
2019-04-01T16:32:49.336Z,2.40
2019-04-01T16:35:18.865Z,2.00
2019-04-01T16:37:48.417Z,3.15
2019-04-01T16:40:18.428Z,2.83
2019-04-01T16:42:48.475Z,2.80
2019-04-01T16:45:18.206Z,2.47
2019-04-01T16:47:48.589Z,2.25
2019-04-01T16:50:18.539Z,2.40
2019-04-01T16:52:48.099Z,2.60
2019-04-01T16:55:18.401Z,1.70
2019-04-01T16:57:48.242Z,2.23
2019-04-01T17:00:19.487Z,2.45
2019-04-01T17:02:50.033Z,2.40
2019-04-01T17:05:24.317Z,2.80
2019-04-01T17:07:53.838Z,2.10
2019-04-01T17:10:25.018Z,1.92
2019-04-01T17:12:54.632Z,2.08
2019-04-01T17:15:24.441Z,2.20
2019-04-01T17:17:53.972Z,2.15
2019-04-01T17:20:23.498Z,2.10
2019-04-01T17:22:53.053Z,2.37
2019-04-01T17:25:22.601Z,2.60
2019-04-01T17:27:52.213Z,2.40
2019-04-01T17:30:21.989Z,2.80
2019-04-01T17:32:52.895Z,2.62
2019-04-01T17:35:22.503Z,3.30
2019-04-01T17:37:53.127Z,3.17
2019-04-01T17:40:22.687Z,2.95
2019-04-01T17:42:53.184Z,3.60
2019-04-01T17:45:41.066Z,3.75
2019-04-01T17:48:10.840Z,3.30
2019-04-01T17:50:40.449Z,3.20
2019-04-01T17:53:10.611Z,2.20
2019-04-01T17:55:40.143Z,2.52
2019-04-01T17:58:09.711Z,3.05
2019-04-01T18:00:42.525Z,3.10
2019-04-01T18:03:12.131Z,3.05
2019-04-01T18:05:41.721Z,6.33
2019-04-01T18:08:11.333Z,3.60
2019-04-01T18:10:40.874Z,2.83
2019-04-01T18:13:13.715Z,2.58
2019-04-01T18:15:44.286Z,2.85
2019-04-01T18:18:26.068Z,2.60
2019-04-01T18:20:46.013Z,2.30
2019-04-01T18:23:15.551Z,2.98
2019-04-01T18:25:45.100Z,2.60
2019-04-01T18:28:14.638Z,2.42
2019-04-01T18:30:44.223Z,2.30
2019-04-01T18:33:13.767Z,2.40
2019-04-01T18:35:44.892Z,2.40
2019-04-01T18:38:14.573Z,2.63
2019-04-01T18:40:44.156Z,3.00
2019-04-01T18:43:13.683Z,2.53
2019-04-01T18:45:43.940Z,2.10
2019-04-01T18:48:14.760Z,2.45
2019-04-01T18:50:44.623Z,3.00
2019-04-01T18:53:14.232Z,2.83
2019-04-01T18:55:43.779Z,2.73
2019-04-01T18:58:13.322Z,3.05
2019-04-01T19:00:42.909Z,2.65
2019-04-01T19:03:12.547Z,2.47
2019-04-01T19:05:42.075Z,2.50
2019-04-01T19:08:11.628Z,4.00
2019-04-01T19:10:41.732Z,4.20
2019-04-01T19:13:12.703Z,3.92
2019-04-01T19:15:43.868Z,3.30
2019-04-01T19:18:14.481Z,2.80
2019-04-01T19:20:55.621Z,3.02
2019-04-01T19:23:16.546Z,2.98
2019-04-01T19:25:50.660Z,3.20
2019-04-01T19:28:20.883Z,3.37
2019-04-01T19:30:50.450Z,3.40
2019-04-01T19:33:19.998Z,3.00
2019-04-01T19:35:49.635Z,2.98
2019-04-01T19:38:21.318Z,2.50
2019-04-01T19:40:51.299Z,2.40
2019-04-01T19:43:21.610Z,2.60
2019-04-01T19:45:51.154Z,2.77
2019-04-01T19:48:20.724Z,2.80
2019-04-01T19:50:50.254Z,2.35
2019-04-01T19:53:19.824Z,2.40
2019-04-01T19:55:49.341Z,2.50
2019-04-01T19:58:18.964Z,2.53
2019-04-01T20:00:49.569Z,2.65
2019-04-01T20:03:19.180Z,2.27
2019-04-01T20:05:50.082Z,2.30
2019-04-01T20:08:19.586Z,2.53
2019-04-01T20:10:49.363Z,2.40
2019-04-01T20:13:18.901Z,2.58
2019-04-01T20:15:48.526Z,2.90
2019-04-01T20:18:18.066Z,2.75
2019-04-01T20:20:47.812Z,2.70
2019-04-01T20:23:17.520Z,2.30
2019-04-01T20:25:48.737Z,2.80
2019-04-01T20:28:18.420Z,2.20
2019-04-01T20:30:48.621Z,2.80
2019-04-01T20:33:19.634Z,2.42
2019-04-01T20:35:49.455Z,2.50
2019-04-01T20:38:19.357Z,2.47
2019-04-01T20:40:48.909Z,2.85
2019-04-01T20:43:18.429Z,2.72
2019-04-01T20:45:48.044Z,2.70
2019-04-01T20:48:17.590Z,2.20
2019-04-01T20:50:47.101Z,2.50
2019-04-01T20:53:16.652Z,2.20
2019-04-01T20:55:48.422Z,2.20
2019-04-01T20:58:17.641Z,2.40
2019-04-01T21:00:47.196Z,2.60
2019-04-01T21:03:17.084Z,2.10
2019-04-01T21:05:46.602Z,2.50
2019-04-01T21:08:16.461Z,2.90
2019-04-01T21:10:46.395Z,2.80
2019-04-01T21:13:16.030Z,2.52
2019-04-01T21:15:45.709Z,2.40
2019-04-01T21:18:15.295Z,2.00
2019-04-01T21:20:44.830Z,2.50
2019-04-01T21:23:14.364Z,2.45
2019-04-01T21:25:44.574Z,2.40
2019-04-01T21:28:14.145Z,2.12
2019-04-01T21:30:43.783Z,2.67
2019-04-01T21:33:14.066Z,2.90
2019-04-01T21:35:43.794Z,2.80
2019-04-01T21:38:13.324Z,2.10
2019-04-01T21:40:42.876Z,2.90
2019-04-01T21:43:14.163Z,2.10
2019-04-01T21:45:45.803Z,2.80
2019-04-01T21:48:15.343Z,2.83
2019-04-01T21:50:44.872Z,2.80
2019-04-01T21:53:14.381Z,2.40
2019-04-01T21:55:43.904Z,3.00
2019-04-01T21:58:13.432Z,2.60
2019-04-01T22:00:54.034Z,2.50
2019-04-01T22:03:23.540Z,2.55
2019-04-01T22:05:53.056Z,3.00
2019-04-01T22:08:22.634Z,2.30
2019-04-01T22:10:52.154Z,2.80
2019-04-01T22:13:21.754Z,2.95
2019-04-01T22:15:51.290Z,2.60
2019-04-01T22:18:20.814Z,2.95
2019-04-01T22:20:50.340Z,3.00
2019-04-01T22:23:19.931Z,2.65
2019-04-01T22:25:49.455Z,2.77
2019-04-01T22:28:19.110Z,2.42
2019-04-01T22:30:48.620Z,2.72
2019-04-01T22:33:18.114Z,2.70
2019-04-01T22:35:47.712Z,2.40
2019-04-01T22:38:25.095Z,3.12
2019-04-01T22:40:48.427Z,2.40
2019-04-01T22:43:17.952Z,2.72
2019-04-01T22:45:48.334Z,2.77
2019-04-01T22:48:18.848Z,2.58
2019-04-01T22:50:48.366Z,2.30
2019-04-01T22:53:17.920Z,2.80
2019-04-01T22:55:47.445Z,2.80
2019-04-01T22:58:16.971Z,2.72
2019-04-01T23:00:47.186Z,2.40
2019-04-01T23:03:18.182Z,3.08
2019-04-01T23:05:47.700Z,2.65
2019-04-01T23:08:17.195Z,2.58
2019-04-01T23:10:46.715Z,2.70
2019-04-01T23:13:16.215Z,2.80
2019-04-01T23:15:45.734Z,3.37
2019-04-01T23:18:15.241Z,2.60
2019-04-01T23:20:44.748Z,2.98
2019-04-01T23:23:14.255Z,2.90
2019-04-01T23:25:43.783Z,2.90
2019-04-01T23:28:13.291Z,2.83
2019-04-01T23:30:42.814Z,3.10
2019-04-01T23:33:12.319Z,3.40
2019-04-01T23:35:42.289Z,3.25
2019-04-01T23:38:12.733Z,3.40
2019-04-01T23:40:42.243Z,3.85
2019-04-01T23:43:11.760Z,3.30
2019-04-01T23:45:41.279Z,3.22
2019-04-01T23:48:10.783Z,2.90
2019-04-01T23:50:40.287Z,3.10
2019-04-01T23:53:09.782Z,3.20
2019-04-01T23:55:39.291Z,3.22
2019-04-01T23:58:08.795Z,2.62
